Time;durP1;ratioP1;P1;durP2;ratioP2;P2;SDS_P1;SDS_P2;PMS_P1;PMS_P2;Temp;Humidity;BMP_temperature;BMP_pressure;BME280_temperature;BME280_humidity;BME280_pressure;Samples;Min_cycle;Max_cycle;Signal;HPM_P1;HPM_P2
2024/01/13 00:02:36;;;;;;;54.30;30.10;;;1.00;99.90;;;;;;5052087;28;20988;-74
2024/01/13 00:05:22;;;;;;;51.17;29.35;;;1.00;99.90;;;;;;5058246;28;20347;-74
2024/01/13 00:08:07;;;;;;;57.45;30.98;;;1.00;99.90;;;;;;5061656;28;20278;-75
2024/01/13 00:10:53;;;;;;;52.13;29.42;;;1.00;99.90;;;;;;5064002;28;20241;-75
2024/01/13 00:13:39;;;;;;;51.40;31.40;;;0.90;99.90;;;;;;5058898;28;20358;-74
2024/01/13 00:16:26;;;;;;;52.55;29.67;;;0.90;99.90;;;;;;5061990;28;20687;-75
2024/01/13 00:19:11;;;;;;;49.85;30.67;;;0.90;99.90;;;;;;5065388;28;20363;-75
2024/01/13 00:21:57;;;;;;;56.13;32.40;;;0.90;99.90;;;;;;5053586;28;20200;-74
2024/01/13 00:24:42;;;;;;;55.33;31.35;;;0.90;99.90;;;;;;5060056;28;20573;-74
2024/01/13 00:27:28;;;;;;;59.88;32.75;;;0.80;99.90;;;;;;5062317;28;20455;-74
2024/01/13 00:30:15;;;;;;;67.53;39.50;;;0.80;99.90;;;;;;5066546;28;20247;-74
2024/01/13 00:33:02;;;;;;;58.15;33.20;;;0.80;99.90;;;;;;5063061;28;20223;-74
2024/01/13 00:35:47;;;;;;;59.17;34.65;;;0.80;99.90;;;;;;5064350;28;20564;-74
2024/01/13 00:38:33;;;;;;;58.92;34.22;;;0.80;99.90;;;;;;5062119;28;20199;-74
2024/01/13 00:41:18;;;;;;;62.03;34.13;;;0.70;99.90;;;;;;5053112;28;20200;-74
2024/01/13 00:44:05;;;;;;;61.80;34.90;;;0.80;99.90;;;;;;5066540;28;20197;-74
2024/01/13 00:46:50;;;;;;;65.28;36.53;;;0.80;99.90;;;;;;5068829;28;20208;-75
2024/01/13 00:49:37;;;;;;;63.05;35.45;;;0.80;99.90;;;;;;5051210;28;20252;-75
2024/01/13 00:52:23;;;;;;;63.45;34.85;;;0.80;99.90;;;;;;5062880;28;20200;-74
2024/01/13 00:55:09;;;;;;;65.05;35.65;;;0.90;99.90;;;;;;5065677;28;20215;-76
2024/01/13 00:57:54;;;;;;;65.50;34.40;;;0.80;99.90;;;;;;5060511;28;20722;-74
2024/01/13 01:00:40;;;;;;;61.72;34.65;;;0.80;99.90;;;;;;5055942;28;20220;-74
2024/01/13 01:03:26;;;;;;;65.65;34.70;;;0.80;99.90;;;;;;5052754;28;20203;-74
2024/01/13 01:06:13;;;;;;;56.15;31.92;;;0.80;99.90;;;;;;5051036;28;20205;-74
2024/01/13 01:08:59;;;;;;;50.03;32.00;;;0.90;99.90;;;;;;5065060;28;20196;-75
2024/01/13 01:11:44;;;;;;;57.03;34.42;;;0.90;99.90;;;;;;5047822;28;20282;-74
2024/01/13 01:14:30;;;;;;;49.88;30.45;;;0.90;99.90;;;;;;5059746;28;20358;-74
2024/01/13 01:17:16;;;;;;;53.05;31.83;;;1.00;99.90;;;;;;5067054;28;20255;-74
2024/01/13 01:20:02;;;;;;;51.05;30.55;;;1.00;99.90;;;;;;5062992;28;20951;-74
2024/01/13 01:22:49;;;;;;;56.35;30.70;;;1.00;99.90;;;;;;5057942;28;20201;-74
2024/01/13 01:25:35;;;;;;;51.72;30.42;;;0.90;99.90;;;;;;5062436;28;20684;-74
2024/01/13 01:28:22;;;;;;;55.92;30.60;;;0.90;99.90;;;;;;5068723;28;20204;-74
2024/01/13 01:31:08;;;;;;;53.72;30.42;;;0.90;99.90;;;;;;5051626;28;20289;-74
2024/01/13 01:33:53;;;;;;;61.35;33.55;;;0.90;99.90;;;;;;5060555;28;20285;-74
2024/01/13 01:36:39;;;;;;;55.00;31.05;;;0.90;99.90;;;;;;5067212;28;20299;-74
2024/01/13 01:39:26;;;;;;;51.42;31.00;;;1.00;99.90;;;;;;5057116;28;20582;-74
2024/01/13 01:42:12;;;;;;;49.03;29.27;;;0.90;99.90;;;;;;5068033;28;20299;-74
2024/01/13 01:44:57;;;;;;;45.90;29.10;;;1.00;99.90;;;;;;5067059;28;20209;-74
2024/01/13 01:47:44;;;;;;;52.28;31.85;;;0.90;99.90;;;;;;5062654;28;20223;-74
2024/01/13 01:50:30;;;;;;;51.28;30.80;;;0.90;99.90;;;;;;5062152;28;20442;-74
2024/01/13 01:53:16;;;;;;;52.00;31.88;;;0.80;99.90;;;;;;5066200;28;20303;-74
2024/01/13 01:56:07;;;;;;;54.15;30.10;;;0.80;99.90;;;;;;5050329;28;20692;-74
2024/01/13 01:58:54;;;;;;;52.40;33.63;;;0.80;99.90;;;;;;5066945;28;20219;-75
2024/01/13 02:01:40;;;;;;;53.58;31.02;;;0.80;99.90;;;;;;5071823;28;20643;-74
2024/01/13 02:04:26;;;;;;;56.13;31.25;;;0.60;99.90;;;;;;5060152;28;20211;-74
2024/01/13 02:07:12;;;;;;;57.97;35.55;;;0.60;99.90;;;;;;5055621;28;20207;-74
2024/01/13 02:09:57;;;;;;;54.70;31.60;;;0.70;99.90;;;;;;5060682;28;20294;-74
2024/01/13 02:12:44;;;;;;;51.10;31.23;;;0.70;99.90;;;;;;5067297;28;20207;-74
2024/01/13 02:15:30;;;;;;;54.08;30.55;;;0.70;99.90;;;;;;5067452;28;20655;-74
2024/01/13 02:18:15;;;;;;;49.05;30.50;;;0.60;99.90;;;;;;5072222;28;20196;-74
2024/01/13 02:21:01;;;;;;;53.92;32.03;;;0.60;99.90;;;;;;5068375;28;20240;-74
2024/01/13 02:23:48;;;;;;;50.70;30.30;;;0.60;99.90;;;;;;5054576;28;20695;-74
2024/01/13 02:26:35;;;;;;;49.03;31.63;;;0.50;99.90;;;;;;5052201;28;20286;-75
2024/01/13 02:29:20;;;;;;;49.42;30.35;;;0.50;99.90;;;;;;5060286;28;20223;-74
2024/01/13 02:32:06;;;;;;;47.80;28.55;;;0.60;99.90;;;;;;5071566;28;20201;-74
2024/01/13 02:34:52;;;;;;;49.05;29.40;;;0.60;99.90;;;;;;5068700;28;20308;-75
2024/01/13 02:37:37;;;;;;;46.60;29.75;;;0.60;99.90;;;;;;5064886;28;20587;-75
2024/01/13 02:40:24;;;;;;;49.90;30.92;;;0.60;99.90;;;;;;5051924;28;20237;-74
2024/01/13 02:43:10;;;;;;;47.47;28.48;;;0.70;99.90;;;;;;5070789;28;20207;-74
2024/01/13 02:45:56;;;;;;;49.97;30.33;;;0.70;99.90;;;;;;5060763;28;20224;-74
2024/01/13 02:48:44;;;;;;;49.17;30.58;;;0.60;99.90;;;;;;5071722;28;20330;-74
2024/01/13 02:51:30;;;;;;;54.13;32.50;;;0.70;99.90;;;;;;5052360;28;20270;-75
2024/01/13 02:54:16;;;;;;;52.83;32.50;;;0.60;99.90;;;;;;5049788;28;20302;-74
2024/01/13 02:57:03;;;;;;;59.70;33.17;;;0.70;99.90;;;;;;5047303;28;20711;-74
2024/01/13 02:59:48;;;;;;;55.33;36.17;;;0.80;99.90;;;;;;5070952;28;20243;-74
2024/01/13 03:02:34;;;;;;;53.20;31.27;;;0.70;99.90;;;;;;5071679;28;20332;-75
2024/01/13 03:05:20;;;;;;;57.47;35.58;;;0.60;99.90;;;;;;5061467;28;20200;-74
2024/01/13 03:08:06;;;;;;;57.55;35.17;;;0.60;99.90;;;;;;5050375;28;20342;-75
2024/01/13 03:10:52;;;;;;;61.30;37.15;;;0.60;99.90;;;;;;5066273;28;20228;-74
2024/01/13 03:13:39;;;;;;;69.35;41.13;;;0.70;99.90;;;;;;5066960;28;20664;-75
2024/01/13 03:16:26;;;;;;;65.75;37.78;;;0.70;99.90;;;;;;5065996;28;20212;-75
2024/01/13 03:19:13;;;;;;;66.65;37.25;;;0.70;99.90;;;;;;5055460;28;20232;-75
2024/01/13 03:21:59;;;;;;;61.67;34.72;;;0.60;99.90;;;;;;5052583;28;20201;-74
2024/01/13 03:24:45;;;;;;;61.40;34.00;;;0.50;99.90;;;;;;5055433;28;20205;-74
2024/01/13 03:27:30;;;;;;;63.70;39.22;;;0.50;99.90;;;;;;5071582;28;20243;-74
2024/01/13 03:30:17;;;;;;;62.03;39.67;;;0.50;99.90;;;;;;5070435;28;20224;-74
2024/01/13 03:33:03;;;;;;;63.67;40.15;;;0.50;99.90;;;;;;5037706;28;20206;-74
2024/01/13 03:35:49;;;;;;;64.93;36.58;;;0.50;99.90;;;;;;5048426;28;20213;-74
2024/01/13 03:38:35;;;;;;;61.38;37.60;;;0.50;99.90;;;;;;5065087;28;20216;-74
2024/01/13 03:41:21;;;;;;;55.50;32.92;;;0.60;99.90;;;;;;5053065;28;20243;-74
2024/01/13 03:44:06;;;;;;;60.42;38.33;;;0.70;99.90;;;;;;5053894;28;20205;-74
2024/01/13 03:46:53;;;;;;;54.42;34.55;;;0.80;99.90;;;;;;5062989;28;20219;-74
2024/01/13 03:49:39;;;;;;;62.45;36.25;;;0.80;99.90;;;;;;5038472;28;20245;-74
2024/01/13 03:52:24;;;;;;;54.53;33.80;;;0.70;99.90;;;;;;5055665;28;20725;-74
2024/01/13 03:55:10;;;;;;;60.38;36.15;;;0.70;99.90;;;;;;5047822;28;20814;-74
2024/01/13 03:57:55;;;;;;;57.72;36.50;;;0.60;99.90;;;;;;5068003;28;20245;-74
2024/01/13 04:00:41;;;;;;;53.80;33.38;;;0.60;99.90;;;;;;5060794;28;20268;-74
2024/01/13 04:03:28;;;;;;;55.28;32.70;;;0.60;99.90;;;;;;5047174;28;20207;-74
2024/01/13 04:06:13;;;;;;;56.53;34.42;;;0.50;99.90;;;;;;5051667;28;20279;-74
2024/01/13 04:08:59;;;;;;;53.80;37.45;;;0.40;99.90;;;;;;5045945;28;20213;-74
2024/01/13 04:11:45;;;;;;;53.55;28.42;;;0.50;99.90;;;;;;5051646;28;20584;-74
2024/01/13 04:14:30;;;;;;;50.47;30.90;;;0.60;99.90;;;;;;5052474;28;20596;-74
2024/01/13 04:17:16;;;;;;;52.10;35.58;;;0.50;99.90;;;;;;5051520;28;20634;-74
2024/01/13 04:20:03;;;;;;;52.60;33.67;;;0.60;99.90;;;;;;5060514;28;20597;-74
2024/01/13 04:22:49;;;;;;;52.35;30.75;;;0.70;99.90;;;;;;5054223;28;20267;-74
2024/01/13 04:25:34;;;;;;;54.13;29.75;;;0.60;99.90;;;;;;5043073;28;20202;-74
2024/01/13 04:28:20;;;;;;;54.72;31.90;;;0.70;99.90;;;;;;5055802;28;20681;-74
2024/01/13 04:31:07;;;;;;;55.08;31.85;;;0.70;99.90;;;;;;5059880;28;20347;-74
2024/01/13 04:33:52;;;;;;;49.35;28.10;;;0.70;99.90;;;;;;5052256;28;20208;-74
2024/01/13 04:36:39;;;;;;;49.22;28.30;;;0.80;99.90;;;;;;5046828;28;20209;-74
2024/01/13 04:39:25;;;;;;;57.53;31.92;;;0.70;99.90;;;;;;5052219;28;20223;-74
2024/01/13 04:42:11;;;;;;;52.78;31.63;;;0.80;99.90;;;;;;5052549;28;20196;-74
2024/01/13 04:44:56;;;;;;;60.80;33.15;;;0.80;99.90;;;;;;5045462;28;20197;-74
2024/01/13 04:47:42;;;;;;;61.30;33.65;;;0.80;99.90;;;;;;5053152;28;20207;-75
2024/01/13 04:50:28;;;;;;;53.92;29.58;;;0.80;99.90;;;;;;5045829;28;20233;-74
2024/01/13 04:53:15;;;;;;;65.70;34.53;;;0.70;99.90;;;;;;5070267;28;20266;-74
2024/01/13 04:56:00;;;;;;;61.97;33.80;;;0.70;99.90;;;;;;5055959;28;20224;-74
2024/01/13 04:58:46;;;;;;;59.35;33.33;;;0.70;99.90;;;;;;5052105;28;20331;-74
2024/01/13 05:01:32;;;;;;;52.78;30.40;;;0.80;99.90;;;;;;5055174;28;20578;-74
2024/01/13 05:04:17;;;;;;;54.42;29.95;;;0.70;99.90;;;;;;5058672;28;20568;-74
2024/01/13 05:07:03;;;;;;;53.97;29.48;;;0.70;99.90;;;;;;5046764;28;20571;-74
2024/01/13 05:09:50;;;;;;;60.70;31.35;;;0.70;99.90;;;;;;5048786;28;20282;-74
2024/01/13 05:12:36;;;;;;;56.78;29.80;;;0.60;99.90;;;;;;5048779;28;20335;-74
2024/01/13 05:15:22;;;;;;;53.35;29.67;;;0.50;99.90;;;;;;5058888;28;20227;-74
2024/01/13 05:18:08;;;;;;;54.38;29.50;;;0.70;99.90;;;;;;5054041;28;20731;-75
2024/01/13 05:20:53;;;;;;;56.08;30.30;;;0.60;99.90;;;;;;5047403;28;20599;-74
2024/01/13 05:23:38;;;;;;;54.47;35.05;;;0.60;99.90;;;;;;5047411;28;20571;-74
2024/01/13 05:26:25;;;;;;;57.70;29.33;;;0.60;99.90;;;;;;5052029;28;20201;-74
2024/01/13 05:29:11;;;;;;;58.25;29.85;;;0.50;99.90;;;;;;5053827;28;20227;-74
2024/01/13 05:31:57;;;;;;;55.38;29.17;;;0.50;99.90;;;;;;5059908;28;20500;-74
2024/01/13 05:34:42;;;;;;;56.70;28.60;;;0.50;99.90;;;;;;5059504;28;20271;-74
2024/01/13 05:37:28;;;;;;;53.13;30.23;;;0.60;99.90;;;;;;5044447;28;20383;-74
2024/01/13 05:40:14;;;;;;;54.78;28.23;;;0.60;99.90;;;;;;5054340;28;20605;-74
2024/01/13 05:43:01;;;;;;;56.55;29.50;;;0.60;99.90;;;;;;5058089;28;20204;-74
2024/01/13 05:45:47;;;;;;;59.72;28.25;;;0.70;99.90;;;;;;5056726;28;20219;-74
2024/01/13 05:48:32;;;;;;;56.90;30.35;;;0.70;99.90;;;;;;5057128;28;20248;-74
2024/01/13 05:51:18;;;;;;;54.92;30.75;;;0.80;99.90;;;;;;5059861;28;20200;-74
2024/01/13 05:54:04;;;;;;;55.80;30.85;;;0.80;99.90;;;;;;5052912;28;20799;-74
2024/01/13 05:56:50;;;;;;;61.65;32.90;;;0.70;99.90;;;;;;5050798;28;20208;-74
2024/01/13 05:59:37;;;;;;;70.85;40.47;;;0.70;99.90;;;;;;5050496;28;20232;-74
2024/01/13 06:02:22;;;;;;;92.72;47.08;;;0.60;99.90;;;;;;5053580;28;20208;-74
2024/01/13 06:05:08;;;;;;;67.80;37.83;;;0.70;99.90;;;;;;5070846;28;20369;-74
2024/01/13 06:07:54;;;;;;;64.32;35.08;;;0.60;99.90;;;;;;5054230;28;20201;-74
2024/01/13 06:10:39;;;;;;;88.80;44.38;;;0.70;99.90;;;;;;5050520;28;20232;-74
2024/01/13 06:13:25;;;;;;;76.60;38.80;;;0.70;99.90;;;;;;5052064;28;20217;-74
2024/01/13 06:16:13;;;;;;;71.03;37.20;;;0.60;99.90;;;;;;5060224;28;20233;-74
2024/01/13 06:18:58;;;;;;;65.10;35.75;;;0.60;99.90;;;;;;5052903;28;20723;-74
2024/01/13 06:21:45;;;;;;;58.63;31.92;;;0.60;99.90;;;;;;5055873;28;20200;-75
2024/01/13 06:24:30;;;;;;;59.63;30.75;;;0.60;99.90;;;;;;5052708;28;20232;-75
2024/01/13 06:27:16;;;;;;;58.17;37.13;;;0.60;99.90;;;;;;5054526;28;20691;-74
2024/01/13 06:30:02;;;;;;;55.88;30.48;;;0.50;99.90;;;;;;5051448;28;20225;-74
2024/01/13 06:32:49;;;;;;;54.83;35.17;;;0.50;99.90;;;;;;5053508;28;20201;-74
2024/01/13 06:35:35;;;;;;;55.45;30.13;;;0.70;99.90;;;;;;5051674;28;20715;-74
2024/01/13 06:38:21;;;;;;;54.35;29.90;;;0.50;99.90;;;;;;5057716;28;20759;-74
2024/01/13 06:41:06;;;;;;;47.15;28.05;;;0.50;99.90;;;;;;5063297;28;20217;-75
2024/01/13 06:43:52;;;;;;;55.58;33.65;;;0.50;99.90;;;;;;5063611;28;20200;-74
2024/01/13 06:46:38;;;;;;;40.70;28.00;;;0.60;99.90;;;;;;5042891;28;20200;-73
2024/01/13 06:49:25;;;;;;;51.78;29.67;;;0.70;99.90;;;;;;5050097;28;20225;-74
2024/01/13 06:52:12;;;;;;;45.95;29.65;;;0.70;99.90;;;;;;5060312;28;20755;-74
2024/01/13 06:54:58;;;;;;;44.25;29.15;;;0.70;99.90;;;;;;5059328;28;20355;-73
2024/01/13 06:57:43;;;;;;;50.45;29.88;;;0.60;99.90;;;;;;5058076;28;20336;-74
2024/01/13 07:00:29;;;;;;;81.07;51.72;;;0.40;99.90;;;;;;5062205;28;20224;-74
2024/01/13 07:03:15;;;;;;;52.85;30.13;;;0.30;99.90;;;;;;5064310;28;20205;-74
2024/01/13 07:06:02;;;;;;;47.25;28.05;;;0.30;99.90;;;;;;5060094;28;20263;-73
2024/01/13 07:08:47;;;;;;;50.65;29.00;;;0.40;99.90;;;;;;5048295;28;20221;-74
2024/01/13 07:11:33;;;;;;;47.17;28.02;;;0.50;99.90;;;;;;5054867;28;20692;-74
2024/01/13 07:14:19;;;;;;;48.63;27.83;;;0.60;99.90;;;;;;5064507;28;20204;-74
2024/01/13 07:17:05;;;;;;;44.20;27.10;;;0.50;99.90;;;;;;5059497;28;20204;-75
2024/01/13 07:19:50;;;;;;;44.17;26.30;;;0.60;99.90;;;;;;5051610;28;20237;-74
2024/01/13 07:22:37;;;;;;;44.22;26.83;;;0.60;99.90;;;;;;5058386;28;20537;-74
2024/01/13 07:25:25;;;;;;;39.85;26.02;;;0.60;99.90;;;;;;5050381;28;20212;-74
2024/01/13 07:28:10;;;;;;;38.13;23.52;;;0.40;99.90;;;;;;5056500;28;20220;-75
2024/01/13 07:30:56;;;;;;;37.65;23.58;;;0.40;99.90;;;;;;5069463;28;20271;-74
2024/01/13 07:33:42;;;;;;;101.47;60.00;;;0.40;99.90;;;;;;5057461;28;20215;-74
2024/01/13 07:36:28;;;;;;;46.80;29.13;;;0.30;99.90;;;;;;5056959;28;20256;-74
2024/01/13 07:39:15;;;;;;;59.40;29.85;;;0.30;99.90;;;;;;5059890;28;20243;-74
2024/01/13 07:42:00;;;;;;;68.07;32.80;;;0.30;99.90;;;;;;5059867;28;20212;-74
2024/01/13 07:44:46;;;;;;;44.58;25.48;;;0.30;99.90;;;;;;5050575;28;20209;-74
2024/01/13 07:47:32;;;;;;;43.03;27.42;;;0.30;99.90;;;;;;5057114;28;20201;-76
2024/01/13 07:50:18;;;;;;;36.88;23.55;;;0.30;99.90;;;;;;5061203;28;20255;-74
2024/01/13 07:53:04;;;;;;;36.67;22.83;;;0.30;99.90;;;;;;5058568;28;20223;-74
2024/01/13 07:55:51;;;;;;;37.30;24.58;;;0.30;99.90;;;;;;5054823;28;20315;-74
2024/01/13 07:58:36;;;;;;;38.17;23.10;;;0.30;99.90;;;;;;5052374;28;20344;-74
2024/01/13 08:01:22;;;;;;;39.83;21.77;;;0.30;99.90;;;;;;5052583;28;20266;-74
2024/01/13 08:04:08;;;;;;;37.85;26.42;;;0.30;99.90;;;;;;5061693;28;20204;-73
2024/01/13 08:06:53;;;;;;;36.35;25.83;;;0.50;99.90;;;;;;5054779;28;20231;-75
2024/01/13 08:09:39;;;;;;;35.92;24.70;;;0.50;99.90;;;;;;5052515;28;20219;-75
2024/01/13 08:12:26;;;;;;;42.03;27.80;;;0.40;99.90;;;;;;5055377;28;20207;-75
2024/01/13 08:15:12;;;;;;;36.85;26.98;;;0.50;99.90;;;;;;5060205;28;20223;-75
2024/01/13 08:17:58;;;;;;;35.67;22.10;;;0.60;99.90;;;;;;5057931;28;20204;-75
2024/01/13 08:20:43;;;;;;;33.60;21.75;;;0.60;99.90;;;;;;5059432;28;20227;-75
2024/01/13 08:23:29;;;;;;;35.72;23.27;;;0.70;99.90;;;;;;5058384;28;20338;-75
2024/01/13 08:26:14;;;;;;;38.60;25.70;;;0.50;99.90;;;;;;5056676;28;20297;-75
2024/01/13 08:29:01;;;;;;;35.35;24.73;;;0.50;99.90;;;;;;5058058;28;20223;-75
2024/01/13 08:31:50;;;;;;;36.00;27.23;;;0.40;99.90;;;;;;5053451;28;20212;-75
2024/01/13 08:34:36;;;;;;;38.83;27.17;;;0.50;99.90;;;;;;5057141;28;20205;-75
2024/01/13 08:37:21;;;;;;;36.67;26.08;;;0.40;99.90;;;;;;5061944;28;20203;-75
2024/01/13 08:40:09;;;;;;;38.00;24.77;;;0.40;99.90;;;;;;5057142;28;20303;-75
2024/01/13 08:42:56;;;;;;;41.33;24.85;;;0.50;99.90;;;;;;5055788;28;20688;-75
2024/01/13 08:45:43;;;;;;;39.88;24.63;;;0.60;99.90;;;;;;5053671;28;20193;-75
2024/01/13 08:48:29;;;;;;;37.00;23.67;;;0.60;99.90;;;;;;5057012;28;20610;-75
2024/01/13 08:51:15;;;;;;;38.70;23.92;;;0.70;99.90;;;;;;5059909;28;20251;-75
2024/01/13 08:54:00;;;;;;;38.90;27.25;;;0.70;99.90;;;;;;5059319;28;20242;-75
2024/01/13 08:56:45;;;;;;;40.90;23.95;;;0.70;99.90;;;;;;5055575;28;20231;-75
2024/01/13 08:59:33;;;;;;;35.83;22.83;;;0.70;99.90;;;;;;5051939;28;20254;-75
2024/01/13 09:02:20;;;;;;;37.83;27.20;;;0.50;99.90;;;;;;5052566;28;20204;-75
2024/01/13 09:05:06;;;;;;;42.30;22.83;;;0.50;99.90;;;;;;5051953;28;20212;-75
2024/01/13 09:07:54;;;;;;;41.10;26.13;;;0.40;99.90;;;;;;5047640;28;20204;-75
2024/01/13 09:10:40;;;;;;;35.30;22.02;;;0.30;99.90;;;;;;5049562;28;20355;-75
2024/01/13 09:13:26;;;;;;;41.55;28.23;;;0.30;99.90;;;;;;5061747;28;20293;-75
2024/01/13 09:16:11;;;;;;;42.80;25.50;;;0.40;99.90;;;;;;5047890;28;20232;-75
2024/01/13 09:18:58;;;;;;;39.83;24.83;;;0.40;99.90;;;;;;5054311;28;20227;-75
2024/01/13 09:21:44;;;;;;;39.75;23.60;;;0.40;99.90;;;;;;5047924;28;20245;-75
2024/01/13 09:24:30;;;;;;;36.17;21.80;;;0.50;99.90;;;;;;5059905;28;20212;-73
2024/01/13 09:27:17;;;;;;;37.50;23.25;;;0.40;99.90;;;;;;5049883;28;20199;-75
2024/01/13 09:30:03;;;;;;;38.35;24.92;;;0.20;99.90;;;;;;5055514;28;20236;-74
2024/01/13 09:32:48;;;;;;;48.78;27.85;;;0.30;99.90;;;;;;5058977;28;20212;-74
2024/01/13 09:35:35;;;;;;;40.97;24.88;;;0.40;99.90;;;;;;5054461;28;20359;-75
2024/01/13 09:38:21;;;;;;;47.85;29.25;;;0.40;99.90;;;;;;5056802;28;20358;-75
2024/01/13 09:41:07;;;;;;;46.28;28.77;;;0.40;99.90;;;;;;5045937;28;20259;-75
2024/01/13 09:44:01;;;;;;;41.15;27.45;;;0.50;99.90;;;;;;5060963;28;20239;-75
2024/01/13 09:46:47;;;;;;;37.08;25.65;;;0.40;99.90;;;;;;5052085;28;20695;-74
2024/01/13 09:49:33;;;;;;;41.85;28.13;;;0.40;99.90;;;;;;5059218;28;20236;-75
2024/01/13 09:52:22;;;;;;;35.97;22.10;;;0.50;99.90;;;;;;5055231;28;20215;-74
2024/01/13 09:55:09;;;;;;;47.83;25.52;;;0.60;99.90;;;;;;5062255;28;20204;-74
2024/01/13 09:57:56;;;;;;;50.78;26.83;;;0.40;99.90;;;;;;5050674;28;20497;-75
2024/01/13 10:00:42;;;;;;;40.42;24.80;;;0.30;99.90;;;;;;5046730;28;20248;-74
2024/01/13 10:03:28;;;;;;;37.97;27.95;;;0.50;99.90;;;;;;5046311;28;20208;-75
2024/01/13 10:06:14;;;;;;;40.70;24.15;;;0.50;99.90;;;;;;5061237;28;20324;-75
2024/01/13 10:09:01;;;;;;;33.75;21.88;;;0.50;99.90;;;;;;5048637;28;20244;-75
2024/01/13 10:11:47;;;;;;;35.50;22.52;;;0.50;99.90;;;;;;5052402;28;20273;-75
2024/01/13 10:14:35;;;;;;;39.22;22.60;;;0.50;99.90;;;;;;5061807;28;20222;-74
2024/01/13 10:17:21;;;;;;;39.50;22.80;;;0.40;99.90;;;;;;5060444;28;20223;-75
2024/01/13 10:20:11;;;;;;;34.95;24.00;;;0.40;99.90;;;;;;5063370;28;20228;-75
2024/01/13 10:22:56;;;;;;;36.53;23.98;;;0.50;99.90;;;;;;5065451;28;20204;-75
2024/01/13 10:25:43;;;;;;;38.70;22.27;;;0.50;99.90;;;;;;5062343;28;20201;-75
2024/01/13 10:28:29;;;;;;;34.80;20.88;;;0.60;99.90;;;;;;5062169;28;20200;-75
2024/01/13 10:31:17;;;;;;;32.78;23.17;;;0.60;99.90;;;;;;5052004;28;20204;-75
2024/01/13 10:34:02;;;;;;;35.55;20.17;;;0.70;99.90;;;;;;5053680;28;20196;-75
2024/01/13 10:36:48;;;;;;;34.45;20.77;;;0.70;99.90;;;;;;5060259;28;20262;-75
2024/01/13 10:39:34;;;;;;;32.22;18.05;;;0.90;99.90;;;;;;5063459;28;20295;-75
2024/01/13 10:42:25;;;;;;;33.28;19.67;;;0.90;99.90;;;;;;5058173;28;20276;-75
2024/01/13 10:45:16;;;;;;;37.22;24.05;;;0.90;99.90;;;;;;5064721;28;20338;-75
2024/01/13 10:48:07;;;;;;;33.70;22.20;;;0.70;99.90;;;;;;5069016;28;20204;-75
2024/01/13 10:50:53;;;;;;;40.88;23.15;;;0.80;99.90;;;;;;5053408;28;20243;-75
2024/01/13 10:53:39;;;;;;;33.97;23.52;;;0.90;99.90;;;;;;5059424;28;20204;-75
2024/01/13 10:56:26;;;;;;;32.72;20.55;;;0.80;99.90;;;;;;5058270;28;20350;-75
2024/01/13 10:59:14;;;;;;;38.63;21.75;;;0.70;99.90;;;;;;5064278;28;20557;-75
2024/01/13 11:02:00;;;;;;;31.95;22.00;;;0.70;99.90;;;;;;5060371;28;20290;-75
2024/01/13 11:04:47;;;;;;;34.80;24.55;;;0.80;99.90;;;;;;5065610;28;20209;-75
2024/01/13 11:07:33;;;;;;;30.23;19.90;;;0.70;99.90;;;;;;5062484;28;20204;-75
2024/01/13 11:10:30;;;;;;;32.78;19.40;;;0.60;99.90;;;;;;5059824;28;20277;-74
2024/01/13 11:13:22;;;;;;;31.75;22.95;;;0.60;99.90;;;;;;5056103;28;20200;-75
2024/01/13 11:16:13;;;;;;;32.70;23.67;;;0.60;99.90;;;;;;5070357;28;20271;-75
2024/01/13 11:19:00;;;;;;;32.80;19.73;;;0.60;99.90;;;;;;5065418;28;20247;-75
2024/01/13 11:21:48;;;;;;;33.35;19.55;;;0.60;99.90;;;;;;5055370;28;20343;-73
2024/01/13 11:24:33;;;;;;;31.88;19.95;;;0.50;99.90;;;;;;5067326;28;20216;-74
2024/01/13 11:27:19;;;;;;;32.78;21.08;;;0.60;99.90;;;;;;5056365;28;20200;-74
2024/01/13 11:30:07;;;;;;;29.20;18.25;;;0.60;99.90;;;;;;5060784;28;20584;-74
2024/01/13 11:32:55;;;;;;;33.10;19.08;;;0.60;99.90;;;;;;5057231;28;20208;-73
2024/01/13 11:35:41;;;;;;;28.63;17.60;;;0.70;99.90;;;;;;5058359;28;20205;-74
2024/01/13 11:38:27;;;;;;;33.00;17.95;;;0.60;99.90;;;;;;5058013;28;20239;-74
2024/01/13 11:41:13;;;;;;;29.52;17.65;;;0.60;99.90;;;;;;5060436;28;20323;-74
2024/01/13 11:43:59;;;;;;;30.38;19.02;;;0.70;99.90;;;;;;5056935;28;20267;-73
2024/01/13 11:46:58;;;;;;;30.08;18.50;;;0.60;99.90;;;;;;5059689;28;20334;-73
2024/01/13 11:49:47;;;;;;;31.10;19.05;;;0.70;99.90;;;;;;5060825;28;20220;-74
2024/01/13 11:52:33;;;;;;;31.60;20.52;;;0.70;99.90;;;;;;5067731;28;20209;-74
2024/01/13 11:55:18;;;;;;;32.25;19.00;;;0.80;99.90;;;;;;5066145;28;20314;-73
2024/01/13 11:58:04;;;;;;;29.63;17.38;;;0.90;99.90;;;;;;5065112;28;20224;-74
2024/01/13 12:00:50;;;;;;;31.73;17.98;;;0.80;99.90;;;;;;5062135;28;20227;-74
2024/01/13 12:03:36;;;;;;;28.25;17.55;;;0.80;99.90;;;;;;5054541;28;20203;-74
2024/01/13 12:06:23;;;;;;;36.88;18.50;;;0.70;99.90;;;;;;5061385;28;20224;-73
2024/01/13 12:09:09;;;;;;;30.23;19.55;;;0.90;99.90;;;;;;5061089;28;20252;-74
2024/01/13 12:11:56;;;;;;;38.25;21.50;;;0.80;99.90;;;;;;5045372;28;20671;-74
2024/01/13 12:14:42;;;;;;;39.95;21.30;;;0.90;99.90;;;;;;5063492;28;20224;-73
2024/01/13 12:17:28;;;;;;;48.58;27.48;;;0.90;99.90;;;;;;5056578;28;20726;-74
2024/01/13 12:20:13;;;;;;;31.63;19.08;;;0.90;99.90;;;;;;5064808;28;20232;-74
2024/01/13 12:23:01;;;;;;;28.27;17.42;;;0.90;99.90;;;;;;5061104;28;20200;-74
2024/01/13 12:25:47;;;;;;;26.15;16.73;;;0.90;99.90;;;;;;5063171;28;20324;-73
2024/01/13 12:28:33;;;;;;;34.03;20.20;;;0.90;99.90;;;;;;5058010;28;20205;-74
2024/01/13 12:31:19;;;;;;;29.15;20.33;;;0.90;99.90;;;;;;5054010;28;20670;-74
2024/01/13 12:34:12;;;;;;;28.70;18.17;;;1.00;99.90;;;;;;5057752;28;20562;-74
2024/01/13 12:36:57;;;;;;;30.27;16.83;;;1.00;99.90;;;;;;5060396;28;20597;-74
2024/01/13 12:39:44;;;;;;;28.13;17.65;;;1.00;99.90;;;;;;5063615;28;20220;-74
2024/01/13 12:42:30;;;;;;;26.45;17.88;;;1.10;99.90;;;;;;5052993;28;20220;-74
2024/01/13 12:45:18;;;;;;;30.13;16.80;;;1.00;99.90;;;;;;5059798;28;20192;-74
2024/01/13 12:48:04;;;;;;;24.48;15.20;;;1.10;99.90;;;;;;5063191;28;20608;-74
2024/01/13 12:50:49;;;;;;;19.65;13.88;;;1.10;99.90;;;;;;5059530;28;20232;-74
2024/01/13 12:53:36;;;;;;;22.75;14.90;;;1.00;99.90;;;;;;5058662;28;20208;-74
2024/01/13 12:56:24;;;;;;;24.98;16.05;;;0.90;99.90;;;;;;5055917;28;20211;-74
2024/01/13 12:59:09;;;;;;;20.20;13.48;;;0.80;99.90;;;;;;5058170;28;20229;-74
2024/01/13 13:01:55;;;;;;;23.30;15.23;;;0.70;99.90;;;;;;5062989;28;20387;-73
2024/01/13 13:04:40;;;;;;;23.33;13.25;;;0.70;99.90;;;;;;5059437;28;20284;-74
2024/01/13 13:07:28;;;;;;;22.52;13.63;;;0.80;99.90;;;;;;5057973;28;20200;-74
2024/01/13 13:10:13;;;;;;;19.27;11.88;;;0.90;99.90;;;;;;5056097;28;20236;-74
2024/01/13 13:13:04;;;;;;;16.80;11.23;;;1.00;99.90;;;;;;5064312;28;20201;-74
2024/01/13 13:15:50;;;;;;;17.23;11.25;;;0.90;99.90;;;;;;5050886;28;20209;-74
2024/01/13 13:18:36;;;;;;;17.63;11.82;;;0.90;99.90;;;;;;5065581;28;20227;-73
2024/01/13 13:21:22;;;;;;;16.50;11.63;;;0.90;99.90;;;;;;5056028;28;20211;-74
2024/01/13 13:24:09;;;;;;;16.27;10.68;;;0.90;99.90;;;;;;5064560;28;20324;-73
2024/01/13 13:26:54;;;;;;;17.88;10.65;;;0.90;99.90;;;;;;5051540;28;20204;-73
2024/01/13 13:29:41;;;;;;;15.98;9.40;;;0.90;99.90;;;;;;5065274;28;20227;-73
2024/01/13 13:32:27;;;;;;;15.55;9.30;;;0.90;99.90;;;;;;5056408;28;20214;-73
2024/01/13 13:35:17;;;;;;;14.18;9.80;;;1.00;99.90;;;;;;5066169;28;20207;-73
2024/01/13 13:38:03;;;;;;;13.68;9.43;;;0.90;99.90;;;;;;5062712;28;20306;-73
2024/01/13 13:40:48;;;;;;;14.70;10.70;;;1.00;99.90;;;;;;5057980;28;20322;-73
2024/01/13 13:43:34;;;;;;;15.98;9.77;;;1.00;99.90;;;;;;5052996;28;20208;-74
2024/01/13 13:46:21;;;;;;;13.95;8.90;;;0.90;99.90;;;;;;5059100;28;20215;-73
2024/01/13 13:49:06;;;;;;;12.73;10.35;;;0.90;99.90;;;;;;5057721;28;20221;-73
2024/01/13 13:52:02;;;;;;;13.85;10.50;;;0.90;99.90;;;;;;5063875;28;20208;-74
2024/01/13 13:54:48;;;;;;;14.82;9.30;;;0.80;99.90;;;;;;5069020;28;20203;-74
2024/01/13 13:57:34;;;;;;;14.95;9.88;;;0.90;99.90;;;;;;5061876;28;20297;-74
2024/01/13 14:00:19;;;;;;;12.23;8.75;;;1.00;99.90;;;;;;5066202;28;20290;-74
2024/01/13 14:03:06;;;;;;;18.73;12.18;;;1.10;99.90;;;;;;5062486;28;20202;-73
2024/01/13 14:05:52;;;;;;;14.45;9.57;;;1.10;99.90;;;;;;5065106;28;20725;-74
2024/01/13 14:08:38;;;;;;;24.15;13.88;;;0.90;99.90;;;;;;5070150;28;20271;-73
2024/01/13 14:11:24;;;;;;;21.52;10.75;;;0.90;99.90;;;;;;5058286;28;20691;-73
2024/01/13 14:14:11;;;;;;;16.35;10.48;;;0.90;99.90;;;;;;5066345;28;20209;-74
2024/01/13 14:16:57;;;;;;;12.52;8.73;;;0.80;99.90;;;;;;5067468;28;20797;-73